Terminal Aerodrome Forecast
Issued by NWS

Home | Current Version | Previous Version | Text Only | Print | Product List | Glossary On
Versions: 1 2 3 4 5 6 7 8 9 10 11 12 13 14 15 16 17
000
FTPA31 PHFO 220504 AAA
TAFHJR
TAF AMD
PHJR 220504Z 2205/2224 VRB04KT P6SM FEW025 SCT040
     FM222000 09008KT P6SM VCSH FEW025 SCT040=

USA.gov is the U.S. government's official web portal to all federal, state and local government web resources and services.